sensor_id;sensor_type;location;lat;lon;timestamp;P1;durP1;ratioP1;P2;durP2;ratioP2
809;SDS011;387;48.772;9.186;2023-11-21T00:01:01;2.47;;;1.40;;
809;SDS011;387;48.772;9.186;2023-11-21T00:03:28;5.00;;;1.50;;
809;SDS011;387;48.772;9.186;2023-11-21T00:05:54;3.00;;;1.50;;
809;SDS011;387;48.772;9.186;2023-11-21T00:08:20;3.10;;;1.67;;
809;SDS011;387;48.772;9.186;2023-11-21T00:10:46;3.50;;;2.10;;
809;SDS011;387;48.772;9.186;2023-11-21T00:13:11;4.83;;;2.30;;
809;SDS011;387;48.772;9.186;2023-11-21T00:15:37;6.33;;;2.60;;
809;SDS011;387;48.772;9.186;2023-11-21T00:18:03;5.50;;;2.30;;
809;SDS011;387;48.772;9.186;2023-11-21T00:20:28;6.80;;;2.53;;
809;SDS011;387;48.772;9.186;2023-11-21T00:22:54;8.13;;;2.57;;
809;SDS011;387;48.772;9.186;2023-11-21T00:25:19;7.93;;;2.93;;
809;SDS011;387;48.772;9.186;2023-11-21T00:27:45;5.20;;;3.00;;
809;SDS011;387;48.772;9.186;2023-11-21T00:30:11;11.17;;;3.33;;
809;SDS011;387;48.772;9.186;2023-11-21T00:32:37;4.10;;;3.30;;
809;SDS011;387;48.772;9.186;2023-11-21T00:35:03;8.80;;;3.10;;
809;SDS011;387;48.772;9.186;2023-11-21T00:37:28;5.70;;;3.07;;
809;SDS011;387;48.772;9.186;2023-11-21T00:39:57;7.80;;;2.40;;
809;SDS011;387;48.772;9.186;2023-11-21T00:42:22;3.90;;;2.60;;
809;SDS011;387;48.772;9.186;2023-11-21T00:44:48;4.77;;;2.50;;
809;SDS011;387;48.772;9.186;2023-11-21T00:47:14;8.30;;;2.70;;
809;SDS011;387;48.772;9.186;2023-11-21T00:49:39;6.27;;;2.50;;
809;SDS011;387;48.772;9.186;2023-11-21T00:52:06;7.73;;;2.90;;
809;SDS011;387;48.772;9.186;2023-11-21T00:54:32;9.47;;;3.27;;
809;SDS011;387;48.772;9.186;2023-11-21T00:56:58;6.83;;;3.57;;
809;SDS011;387;48.772;9.186;2023-11-21T00:59:24;4.80;;;2.30;;
809;SDS011;387;48.772;9.186;2023-11-21T01:01:50;4.60;;;2.23;;
809;SDS011;387;48.772;9.186;2023-11-21T01:04:15;6.97;;;2.40;;
809;SDS011;387;48.772;9.186;2023-11-21T01:06:41;3.27;;;1.80;;
809;SDS011;387;48.772;9.186;2023-11-21T01:09:06;4.33;;;2.07;;
809;SDS011;387;48.772;9.186;2023-11-21T01:11:35;5.80;;;2.30;;
809;SDS011;387;48.772;9.186;2023-11-21T01:14:01;7.50;;;2.80;;
809;SDS011;387;48.772;9.186;2023-11-21T01:16:28;5.80;;;2.23;;
809;SDS011;387;48.772;9.186;2023-11-21T01:18:54;6.53;;;2.47;;
809;SDS011;387;48.772;9.186;2023-11-21T01:21:19;2.77;;;1.80;;
809;SDS011;387;48.772;9.186;2023-11-21T01:23:45;7.10;;;1.97;;
809;SDS011;387;48.772;9.186;2023-11-21T01:26:12;2.60;;;1.93;;
809;SDS011;387;48.772;9.186;2023-11-21T01:28:38;7.30;;;2.27;;
809;SDS011;387;48.772;9.186;2023-11-21T01:31:04;4.97;;;2.10;;
809;SDS011;387;48.772;9.186;2023-11-21T01:33:29;4.20;;;2.17;;
809;SDS011;387;48.772;9.186;2023-11-21T01:35:55;4.17;;;2.10;;
809;SDS011;387;48.772;9.186;2023-11-21T01:38:21;8.80;;;2.40;;
809;SDS011;387;48.772;9.186;2023-11-21T01:40:47;7.77;;;2.53;;
809;SDS011;387;48.772;9.186;2023-11-21T01:43:13;8.20;;;2.30;;
809;SDS011;387;48.772;9.186;2023-11-21T01:45:38;7.43;;;2.00;;
809;SDS011;387;48.772;9.186;2023-11-21T01:48:04;10.23;;;3.17;;
809;SDS011;387;48.772;9.186;2023-11-21T01:50:31;4.10;;;2.03;;
809;SDS011;387;48.772;9.186;2023-11-21T01:52:58;5.10;;;2.43;;
809;SDS011;387;48.772;9.186;2023-11-21T01:55:25;3.30;;;2.03;;
809;SDS011;387;48.772;9.186;2023-11-21T01:57:52;2.47;;;1.80;;
809;SDS011;387;48.772;9.186;2023-11-21T02:00:18;3.40;;;1.63;;
809;SDS011;387;48.772;9.186;2023-11-21T02:02:47;4.00;;;1.70;;
809;SDS011;387;48.772;9.186;2023-11-21T02:05:17;4.17;;;1.90;;
809;SDS011;387;48.772;9.186;2023-11-21T02:07:44;3.87;;;1.90;;
809;SDS011;387;48.772;9.186;2023-11-21T02:10:12;3.17;;;1.93;;
809;SDS011;387;48.772;9.186;2023-11-21T02:12:40;4.17;;;2.03;;
809;SDS011;387;48.772;9.186;2023-11-21T02:15:07;4.77;;;1.73;;
809;SDS011;387;48.772;9.186;2023-11-21T02:17:40;4.50;;;1.40;;
809;SDS011;387;48.772;9.186;2023-11-21T02:20:10;4.33;;;1.97;;
809;SDS011;387;48.772;9.186;2023-11-21T02:22:40;2.83;;;2.00;;
809;SDS011;387;48.772;9.186;2023-11-21T02:25:07;3.10;;;1.50;;
809;SDS011;387;48.772;9.186;2023-11-21T02:27:33;4.20;;;1.87;;
809;SDS011;387;48.772;9.186;2023-11-21T02:29:58;4.97;;;1.80;;
809;SDS011;387;48.772;9.186;2023-11-21T02:32:26;4.17;;;2.00;;
809;SDS011;387;48.772;9.186;2023-11-21T02:34:51;3.90;;;1.57;;
809;SDS011;387;48.772;9.186;2023-11-21T02:37:17;4.70;;;1.60;;
809;SDS011;387;48.772;9.186;2023-11-21T02:39:42;3.07;;;1.70;;
809;SDS011;387;48.772;9.186;2023-11-21T02:45:30;2.73;;;1.33;;
809;SDS011;387;48.772;9.186;2023-11-21T02:47:56;2.37;;;1.50;;
809;SDS011;387;48.772;9.186;2023-11-21T02:50:23;3.07;;;1.50;;
809;SDS011;387;48.772;9.186;2023-11-21T02:52:49;2.30;;;1.40;;
809;SDS011;387;48.772;9.186;2023-11-21T02:55:14;3.93;;;1.30;;
809;SDS011;387;48.772;9.186;2023-11-21T02:57:40;2.80;;;1.53;;
809;SDS011;387;48.772;9.186;2023-11-21T03:00:06;3.30;;;1.43;;
809;SDS011;387;48.772;9.186;2023-11-21T03:02:32;5.20;;;1.47;;
809;SDS011;387;48.772;9.186;2023-11-21T03:05:01;2.80;;;1.20;;
809;SDS011;387;48.772;9.186;2023-11-21T03:07:27;2.53;;;1.20;;
809;SDS011;387;48.772;9.186;2023-11-21T03:09:52;5.50;;;1.37;;
809;SDS011;387;48.772;9.186;2023-11-21T03:12:18;1.40;;;0.97;;
809;SDS011;387;48.772;9.186;2023-11-21T03:14:44;2.80;;;1.40;;
809;SDS011;387;48.772;9.186;2023-11-21T03:17:10;3.10;;;1.50;;
809;SDS011;387;48.772;9.186;2023-11-21T03:19:36;2.80;;;1.40;;
809;SDS011;387;48.772;9.186;2023-11-21T03:22:02;3.93;;;1.60;;
809;SDS011;387;48.772;9.186;2023-11-21T03:24:29;2.10;;;1.27;;
809;SDS011;387;48.772;9.186;2023-11-21T03:26:54;2.63;;;1.30;;
809;SDS011;387;48.772;9.186;2023-11-21T03:29:20;2.87;;;1.60;;
809;SDS011;387;48.772;9.186;2023-11-21T03:31:46;2.20;;;1.33;;
809;SDS011;387;48.772;9.186;2023-11-21T03:34:15;2.33;;;1.30;;
809;SDS011;387;48.772;9.186;2023-11-21T03:36:44;1.60;;;1.07;;
809;SDS011;387;48.772;9.186;2023-11-21T03:39:11;2.00;;;1.00;;
809;SDS011;387;48.772;9.186;2023-11-21T03:41:36;2.30;;;1.33;;
809;SDS011;387;48.772;9.186;2023-11-21T03:44:02;2.20;;;1.33;;
809;SDS011;387;48.772;9.186;2023-11-21T03:46:28;3.10;;;1.50;;
809;SDS011;387;48.772;9.186;2023-11-21T03:48:53;2.23;;;1.30;;
809;SDS011;387;48.772;9.186;2023-11-21T03:51:20;2.27;;;1.30;;
809;SDS011;387;48.772;9.186;2023-11-21T03:53:46;1.97;;;1.30;;
809;SDS011;387;48.772;9.186;2023-11-21T03:56:13;2.60;;;1.10;;
809;SDS011;387;48.772;9.186;2023-11-21T03:58:39;3.77;;;1.40;;
809;SDS011;387;48.772;9.186;2023-11-21T04:01:04;1.63;;;1.20;;
809;SDS011;387;48.772;9.186;2023-11-21T04:03:30;1.87;;;1.40;;
809;SDS011;387;48.772;9.186;2023-11-21T04:05:56;6.13;;;1.80;;
809;SDS011;387;48.772;9.186;2023-11-21T04:08:22;3.13;;;1.40;;
809;SDS011;387;48.772;9.186;2023-11-21T04:10:47;2.03;;;1.40;;
809;SDS011;387;48.772;9.186;2023-11-21T04:13:13;2.40;;;1.50;;
809;SDS011;387;48.772;9.186;2023-11-21T04:15:39;3.93;;;1.40;;
809;SDS011;387;48.772;9.186;2023-11-21T04:18:05;2.60;;;1.50;;
809;SDS011;387;48.772;9.186;2023-11-21T04:20:30;3.60;;;1.30;;
809;SDS011;387;48.772;9.186;2023-11-21T04:22:56;3.20;;;1.40;;
809;SDS011;387;48.772;9.186;2023-11-21T04:25:22;1.30;;;1.30;;
809;SDS011;387;48.772;9.186;2023-11-21T04:27:48;3.50;;;1.43;;
809;SDS011;387;48.772;9.186;2023-11-21T04:30:14;4.37;;;1.50;;
809;SDS011;387;48.772;9.186;2023-11-21T04:32:40;1.93;;;1.20;;
809;SDS011;387;48.772;9.186;2023-11-21T04:35:06;1.63;;;1.20;;
809;SDS011;387;48.772;9.186;2023-11-21T04:37:33;2.93;;;1.40;;
809;SDS011;387;48.772;9.186;2023-11-21T04:39:59;3.40;;;1.07;;
809;SDS011;387;48.772;9.186;2023-11-21T04:42:25;2.10;;;1.10;;
809;SDS011;387;48.772;9.186;2023-11-21T04:44:50;3.87;;;1.93;;
809;SDS011;387;48.772;9.186;2023-11-21T04:47:17;2.70;;;1.43;;
809;SDS011;387;48.772;9.186;2023-11-21T04:49:45;8.33;;;1.20;;
809;SDS011;387;48.772;9.186;2023-11-21T04:52:12;3.70;;;1.40;;
809;SDS011;387;48.772;9.186;2023-11-21T04:54:38;4.87;;;1.20;;
809;SDS011;387;48.772;9.186;2023-11-21T04:57:05;3.27;;;1.07;;
809;SDS011;387;48.772;9.186;2023-11-21T04:59:32;2.20;;;1.47;;
809;SDS011;387;48.772;9.186;2023-11-21T05:01:58;3.30;;;1.30;;
809;SDS011;387;48.772;9.186;2023-11-21T05:04:25;2.00;;;1.40;;
809;SDS011;387;48.772;9.186;2023-11-21T05:06:50;2.33;;;1.40;;
809;SDS011;387;48.772;9.186;2023-11-21T05:09:16;2.70;;;1.33;;
809;SDS011;387;48.772;9.186;2023-11-21T05:11:42;3.63;;;1.33;;
809;SDS011;387;48.772;9.186;2023-11-21T05:14:08;2.40;;;1.13;;
809;SDS011;387;48.772;9.186;2023-11-21T05:16:34;2.10;;;0.90;;
809;SDS011;387;48.772;9.186;2023-11-21T05:19:00;1.80;;;1.03;;
809;SDS011;387;48.772;9.186;2023-11-21T05:21:26;1.93;;;1.20;;
809;SDS011;387;48.772;9.186;2023-11-21T05:23:52;2.63;;;1.10;;
809;SDS011;387;48.772;9.186;2023-11-21T05:26:18;1.70;;;1.23;;
809;SDS011;387;48.772;9.186;2023-11-21T05:28:43;1.97;;;1.00;;
809;SDS011;387;48.772;9.186;2023-11-21T05:31:09;2.17;;;1.33;;
809;SDS011;387;48.772;9.186;2023-11-21T05:33:35;2.40;;;1.20;;
809;SDS011;387;48.772;9.186;2023-11-21T05:36:01;1.97;;;1.20;;
809;SDS011;387;48.772;9.186;2023-11-21T05:38:27;3.60;;;1.20;;
809;SDS011;387;48.772;9.186;2023-11-21T05:40:53;2.40;;;1.10;;
809;SDS011;387;48.772;9.186;2023-11-21T05:43:19;1.83;;;1.27;;
809;SDS011;387;48.772;9.186;2023-11-21T05:45:45;7.17;;;1.20;;
809;SDS011;387;48.772;9.186;2023-11-21T05:48:10;3.80;;;1.27;;
809;SDS011;387;48.772;9.186;2023-11-21T05:50:36;3.63;;;1.40;;
809;SDS011;387;48.772;9.186;2023-11-21T05:53:03;2.43;;;1.50;;
809;SDS011;387;48.772;9.186;2023-11-21T05:55:29;1.30;;;1.10;;
809;SDS011;387;48.772;9.186;2023-11-21T05:57:56;4.13;;;1.53;;
809;SDS011;387;48.772;9.186;2023-11-21T06:00:21;4.63;;;2.00;;
809;SDS011;387;48.772;9.186;2023-11-21T06:02:47;4.93;;;2.17;;
809;SDS011;387;48.772;9.186;2023-11-21T06:05:17;4.23;;;1.63;;
809;SDS011;387;48.772;9.186;2023-11-21T06:07:44;3.20;;;1.37;;
809;SDS011;387;48.772;9.186;2023-11-21T06:10:11;1.40;;;1.10;;
809;SDS011;387;48.772;9.186;2023-11-21T06:12:39;1.30;;;0.93;;
809;SDS011;387;48.772;9.186;2023-11-21T06:15:08;1.93;;;1.30;;
809;SDS011;387;48.772;9.186;2023-11-21T06:17:34;2.10;;;1.70;;
809;SDS011;387;48.772;9.186;2023-11-21T06:20:05;4.57;;;1.33;;
809;SDS011;387;48.772;9.186;2023-11-21T06:22:37;2.43;;;1.47;;
809;SDS011;387;48.772;9.186;2023-11-21T06:25:04;2.93;;;1.53;;
809;SDS011;387;48.772;9.186;2023-11-21T06:27:35;2.63;;;1.40;;
809;SDS011;387;48.772;9.186;2023-11-21T06:30:02;2.20;;;1.30;;
809;SDS011;387;48.772;9.186;2023-11-21T06:32:29;4.60;;;2.07;;
809;SDS011;387;48.772;9.186;2023-11-21T06:34:55;1.40;;;1.20;;
809;SDS011;387;48.772;9.186;2023-11-21T06:37:24;4.47;;;1.93;;
809;SDS011;387;48.772;9.186;2023-11-21T06:39:51;3.10;;;1.60;;
809;SDS011;387;48.772;9.186;2023-11-21T06:42:17;3.00;;;1.80;;
809;SDS011;387;48.772;9.186;2023-11-21T06:44:44;2.33;;;1.90;;
809;SDS011;387;48.772;9.186;2023-11-21T06:47:10;2.03;;;1.53;;
809;SDS011;387;48.772;9.186;2023-11-21T06:49:36;3.63;;;2.10;;
809;SDS011;387;48.772;9.186;2023-11-21T06:52:03;1.80;;;1.47;;
809;SDS011;387;48.772;9.186;2023-11-21T06:54:30;3.40;;;2.00;;
809;SDS011;387;48.772;9.186;2023-11-21T06:56:56;3.77;;;1.90;;
809;SDS011;387;48.772;9.186;2023-11-21T06:59:23;4.57;;;2.00;;
809;SDS011;387;48.772;9.186;2023-11-21T07:01:48;2.43;;;1.80;;
809;SDS011;387;48.772;9.186;2023-11-21T07:04:14;2.87;;;1.80;;
809;SDS011;387;48.772;9.186;2023-11-21T07:06:40;2.70;;;1.90;;
809;SDS011;387;48.772;9.186;2023-11-21T07:09:06;2.13;;;1.30;;
809;SDS011;387;48.772;9.186;2023-11-21T07:11:33;4.37;;;1.80;;
809;SDS011;387;48.772;9.186;2023-11-21T07:13:59;4.07;;;1.63;;
809;SDS011;387;48.772;9.186;2023-11-21T07:16:27;2.93;;;1.57;;
809;SDS011;387;48.772;9.186;2023-11-21T07:18:55;3.40;;;1.90;;
809;SDS011;387;48.772;9.186;2023-11-21T07:21:21;3.20;;;1.80;;
809;SDS011;387;48.772;9.186;2023-11-21T07:23:46;7.40;;;2.40;;
809;SDS011;387;48.772;9.186;2023-11-21T07:26:12;5.20;;;2.17;;
809;SDS011;387;48.772;9.186;2023-11-21T07:28:37;4.17;;;2.03;;
809;SDS011;387;48.772;9.186;2023-11-21T07:31:03;2.73;;;1.77;;
809;SDS011;387;48.772;9.186;2023-11-21T07:33:29;3.93;;;1.80;;
809;SDS011;387;48.772;9.186;2023-11-21T07:35:54;4.40;;;2.00;;
809;SDS011;387;48.772;9.186;2023-11-21T07:38:20;4.73;;;1.70;;
809;SDS011;387;48.772;9.186;2023-11-21T07:40:45;4.50;;;1.70;;
809;SDS011;387;48.772;9.186;2023-11-21T07:43:11;3.17;;;1.73;;
809;SDS011;387;48.772;9.186;2023-11-21T07:45:37;4.53;;;1.77;;
809;SDS011;387;48.772;9.186;2023-11-21T07:48:02;1.43;;;1.23;;
809;SDS011;387;48.772;9.186;2023-11-21T07:50:30;2.50;;;1.73;;
809;SDS011;387;48.772;9.186;2023-11-21T07:52:55;3.80;;;1.90;;
809;SDS011;387;48.772;9.186;2023-11-21T07:55:22;3.80;;;2.00;;
809;SDS011;387;48.772;9.186;2023-11-21T07:57:49;4.90;;;1.83;;
809;SDS011;387;48.772;9.186;2023-11-21T08:00:15;2.70;;;1.83;;
809;SDS011;387;48.772;9.186;2023-11-21T08:02:41;2.80;;;1.73;;
809;SDS011;387;48.772;9.186;2023-11-21T08:05:07;4.07;;;1.97;;
809;SDS011;387;48.772;9.186;2023-11-21T08:07:33;2.27;;;1.63;;
809;SDS011;387;48.772;9.186;2023-11-21T08:09:59;3.20;;;1.70;;
809;SDS011;387;48.772;9.186;2023-11-21T08:12:25;2.37;;;1.30;;
809;SDS011;387;48.772;9.186;2023-11-21T08:14:52;3.50;;;1.47;;
809;SDS011;387;48.772;9.186;2023-11-21T08:17:18;3.50;;;1.40;;
809;SDS011;387;48.772;9.186;2023-11-21T08:19:45;3.20;;;1.60;;
809;SDS011;387;48.772;9.186;2023-11-21T08:22:14;1.40;;;1.20;;
809;SDS011;387;48.772;9.186;2023-11-21T08:24:41;3.20;;;1.27;;
809;SDS011;387;48.772;9.186;2023-11-21T08:27:06;1.60;;;1.30;;
809;SDS011;387;48.772;9.186;2023-11-21T08:29:32;4.00;;;1.80;;
809;SDS011;387;48.772;9.186;2023-11-21T08:31:57;3.07;;;2.00;;
809;SDS011;387;48.772;9.186;2023-11-21T08:34:24;7.00;;;2.27;;
809;SDS011;387;48.772;9.186;2023-11-21T08:36:50;3.80;;;2.53;;
809;SDS011;387;48.772;9.186;2023-11-21T08:39:16;3.03;;;1.80;;
809;SDS011;387;48.772;9.186;2023-11-21T08:41:44;3.33;;;2.00;;
809;SDS011;387;48.772;9.186;2023-11-21T08:44:09;7.10;;;2.40;;
809;SDS011;387;48.772;9.186;2023-11-21T08:46:35;4.47;;;2.10;;
809;SDS011;387;48.772;9.186;2023-11-21T08:49:03;6.13;;;2.00;;
809;SDS011;387;48.772;9.186;2023-11-21T08:51:28;5.27;;;2.33;;
809;SDS011;387;48.772;9.186;2023-11-21T08:53:54;4.03;;;2.60;;
809;SDS011;387;48.772;9.186;2023-11-21T08:56:24;4.20;;;2.10;;
809;SDS011;387;48.772;9.186;2023-11-21T08:58:49;5.43;;;2.70;;
809;SDS011;387;48.772;9.186;2023-11-21T09:01:15;4.33;;;2.53;;
809;SDS011;387;48.772;9.186;2023-11-21T09:03:43;4.07;;;2.20;;
809;SDS011;387;48.772;9.186;2023-11-21T09:06:09;2.50;;;1.90;;
809;SDS011;387;48.772;9.186;2023-11-21T09:08:35;3.50;;;1.97;;
809;SDS011;387;48.772;9.186;2023-11-21T09:11:00;8.33;;;1.80;;
809;SDS011;387;48.772;9.186;2023-11-21T09:13:26;4.60;;;1.90;;
809;SDS011;387;48.772;9.186;2023-11-21T09:15:52;3.17;;;2.00;;
809;SDS011;387;48.772;9.186;2023-11-21T09:18:17;3.30;;;1.97;;
809;SDS011;387;48.772;9.186;2023-11-21T09:20:44;2.63;;;1.80;;
809;SDS011;387;48.772;9.186;2023-11-21T09:23:09;3.00;;;1.87;;
809;SDS011;387;48.772;9.186;2023-11-21T09:25:35;2.10;;;1.67;;
809;SDS011;387;48.772;9.186;2023-11-21T09:28:02;1.97;;;1.57;;
809;SDS011;387;48.772;9.186;2023-11-21T09:30:32;2.97;;;1.90;;
809;SDS011;387;48.772;9.186;2023-11-21T09:32:59;5.37;;;2.20;;
809;SDS011;387;48.772;9.186;2023-11-21T09:35:25;1.93;;;1.20;;
809;SDS011;387;48.772;9.186;2023-11-21T09:37:52;2.23;;;1.37;;
809;SDS011;387;48.772;9.186;2023-11-21T09:40:20;2.70;;;1.37;;
809;SDS011;387;48.772;9.186;2023-11-21T09:42:56;2.37;;;1.53;;
809;SDS011;387;48.772;9.186;2023-11-21T09:45:26;1.53;;;1.00;;
809;SDS011;387;48.772;9.186;2023-11-21T09:47:54;1.87;;;1.37;;
809;SDS011;387;48.772;9.186;2023-11-21T09:50:20;1.87;;;1.33;;
809;SDS011;387;48.772;9.186;2023-11-21T09:58:28;1.80;;;1.07;;
809;SDS011;387;48.772;9.186;2023-11-21T10:00:55;2.20;;;1.40;;
809;SDS011;387;48.772;9.186;2023-11-21T10:03:22;3.50;;;1.60;;
809;SDS011;387;48.772;9.186;2023-11-21T10:05:48;1.87;;;1.27;;
809;SDS011;387;48.772;9.186;2023-11-21T10:08:15;4.40;;;1.60;;
809;SDS011;387;48.772;9.186;2023-11-21T10:10:45;2.67;;;2.47;;
809;SDS011;387;48.772;9.186;2023-11-21T10:13:13;3.50;;;1.60;;
809;SDS011;387;48.772;9.186;2023-11-21T10:15:41;1.80;;;1.30;;
809;SDS011;387;48.772;9.186;2023-11-21T10:18:13;3.90;;;1.30;;
809;SDS011;387;48.772;9.186;2023-11-21T10:20:40;4.70;;;1.43;;
809;SDS011;387;48.772;9.186;2023-11-21T10:23:06;2.30;;;1.10;;
809;SDS011;387;48.772;9.186;2023-11-21T10:25:36;1.83;;;1.00;;
809;SDS011;387;48.772;9.186;2023-11-21T10:28:02;2.30;;;0.93;;
809;SDS011;387;48.772;9.186;2023-11-21T10:30:32;3.30;;;1.10;;
809;SDS011;387;48.772;9.186;2023-11-21T10:33:02;1.60;;;0.90;;
809;SDS011;387;48.772;9.186;2023-11-21T10:38:15;3.37;;;0.70;;
809;SDS011;387;48.772;9.186;2023-11-21T10:40:46;0.97;;;0.70;;
809;SDS011;387;48.772;9.186;2023-11-21T10:43:13;1.83;;;1.00;;
809;SDS011;387;48.772;9.186;2023-11-21T10:45:40;1.63;;;0.80;;
809;SDS011;387;48.772;9.186;2023-11-21T10:48:06;1.97;;;0.90;;
809;SDS011;387;48.772;9.186;2023-11-21T10:50:33;1.70;;;0.80;;
809;SDS011;387;48.772;9.186;2023-11-21T10:53:01;1.50;;;0.80;;
809;SDS011;387;48.772;9.186;2023-11-21T10:55:28;4.23;;;0.87;;
809;SDS011;387;48.772;9.186;2023-11-21T10:57:54;1.73;;;1.20;;
809;SDS011;387;48.772;9.186;2023-11-21T11:00:29;1.63;;;0.80;;
809;SDS011;387;48.772;9.186;2023-11-21T11:02:56;1.10;;;0.80;;
809;SDS011;387;48.772;9.186;2023-11-21T11:05:24;2.67;;;1.30;;
809;SDS011;387;48.772;9.186;2023-11-21T11:08:07;2.57;;;1.07;;
809;SDS011;387;48.772;9.186;2023-11-21T11:10:37;1.53;;;0.90;;
809;SDS011;387;48.772;9.186;2023-11-21T11:13:03;2.10;;;1.30;;
809;SDS011;387;48.772;9.186;2023-11-21T11:15:31;1.37;;;1.00;;
809;SDS011;387;48.772;9.186;2023-11-21T11:17:58;1.90;;;1.00;;
809;SDS011;387;48.772;9.186;2023-11-21T11:20:25;3.03;;;1.30;;
809;SDS011;387;48.772;9.186;2023-11-21T11:28:44;2.00;;;1.20;;
809;SDS011;387;48.772;9.186;2023-11-21T11:34:52;4.33;;;1.80;;
809;SDS011;387;48.772;9.186;2023-11-21T11:37:06;3.30;;;2.00;;
809;SDS011;387;48.772;9.186;2023-11-21T11:39:37;2.50;;;1.63;;
809;SDS011;387;48.772;9.186;2023-11-21T11:42:06;2.23;;;1.30;;
809;SDS011;387;48.772;9.186;2023-11-21T11:49:54;3.00;;;1.63;;
809;SDS011;387;48.772;9.186;2023-11-21T11:52:51;5.03;;;1.50;;
809;SDS011;387;48.772;9.186;2023-11-21T11:55:18;2.00;;;1.60;;
809;SDS011;387;48.772;9.186;2023-11-21T11:57:45;2.43;;;1.50;;
809;SDS011;387;48.772;9.186;2023-11-21T12:00:22;1.57;;;1.37;;
809;SDS011;387;48.772;9.186;2023-11-21T12:03:02;1.67;;;1.47;;
809;SDS011;387;48.772;9.186;2023-11-21T12:05:32;3.90;;;1.87;;
809;SDS011;387;48.772;9.186;2023-11-21T12:08:07;2.00;;;1.83;;
809;SDS011;387;48.772;9.186;2023-11-21T12:10:34;2.43;;;1.87;;
809;SDS011;387;48.772;9.186;2023-11-21T12:13:02;4.90;;;2.07;;
809;SDS011;387;48.772;9.186;2023-11-21T12:15:32;2.87;;;2.20;;
809;SDS011;387;48.772;9.186;2023-11-21T12:17:58;3.60;;;2.07;;
809;SDS011;387;48.772;9.186;2023-11-21T12:20:24;5.13;;;2.63;;
809;SDS011;387;48.772;9.186;2023-11-21T12:22:52;3.57;;;2.47;;
809;SDS011;387;48.772;9.186;2023-11-21T12:25:24;2.50;;;2.10;;
809;SDS011;387;48.772;9.186;2023-11-21T12:27:54;4.40;;;2.63;;
809;SDS011;387;48.772;9.186;2023-11-21T12:30:22;3.97;;;2.30;;
809;SDS011;387;48.772;9.186;2023-11-21T12:32:49;2.60;;;1.97;;
809;SDS011;387;48.772;9.186;2023-11-21T12:35:17;3.83;;;2.00;;
809;SDS011;387;48.772;9.186;2023-11-21T12:37:51;2.70;;;2.07;;
809;SDS011;387;48.772;9.186;2023-11-21T12:40:18;2.53;;;2.10;;
809;SDS011;387;48.772;9.186;2023-11-21T12:42:45;3.20;;;2.07;;
809;SDS011;387;48.772;9.186;2023-11-21T12:47:45;2.80;;;1.93;;
809;SDS011;387;48.772;9.186;2023-11-21T12:50:12;5.30;;;3.23;;
809;SDS011;387;48.772;9.186;2023-11-21T12:52:42;2.10;;;1.53;;
809;SDS011;387;48.772;9.186;2023-11-21T12:55:17;2.47;;;1.60;;
809;SDS011;387;48.772;9.186;2023-11-21T12:57:47;2.03;;;1.67;;
809;SDS011;387;48.772;9.186;2023-11-21T13:00:17;3.30;;;2.13;;
809;SDS011;387;48.772;9.186;2023-11-21T13:02:56;3.60;;;2.13;;
809;SDS011;387;48.772;9.186;2023-11-21T13:05:26;2.00;;;1.90;;
809;SDS011;387;48.772;9.186;2023-11-21T13:07:53;2.70;;;1.87;;
809;SDS011;387;48.772;9.186;2023-11-21T13:10:23;2.57;;;1.83;;
809;SDS011;387;48.772;9.186;2023-11-21T13:12:56;3.50;;;2.40;;
809;SDS011;387;48.772;9.186;2023-11-21T13:15:23;2.70;;;1.87;;
809;SDS011;387;48.772;9.186;2023-11-21T13:17:49;3.57;;;2.20;;
809;SDS011;387;48.772;9.186;2023-11-21T13:20:16;2.43;;;1.80;;
809;SDS011;387;48.772;9.186;2023-11-21T13:25:24;2.37;;;1.43;;
809;SDS011;387;48.772;9.186;2023-11-21T13:27:55;2.60;;;1.10;;
809;SDS011;387;48.772;9.186;2023-11-21T13:30:21;3.07;;;1.37;;
809;SDS011;387;48.772;9.186;2023-11-21T13:32:51;1.60;;;1.30;;
809;SDS011;387;48.772;9.186;2023-11-21T13:35:18;2.20;;;1.50;;
809;SDS011;387;48.772;9.186;2023-11-21T13:37:55;3.50;;;1.77;;
809;SDS011;387;48.772;9.186;2023-11-21T13:40:22;3.37;;;2.30;;
809;SDS011;387;48.772;9.186;2023-11-21T13:42:55;2.57;;;2.40;;
809;SDS011;387;48.772;9.186;2023-11-21T13:45:24;4.23;;;2.30;;
809;SDS011;387;48.772;9.186;2023-11-21T13:47:51;4.67;;;2.30;;
809;SDS011;387;48.772;9.186;2023-11-21T13:50:22;3.93;;;2.10;;
809;SDS011;387;48.772;9.186;2023-11-21T13:52:52;8.07;;;2.30;;
809;SDS011;387;48.772;9.186;2023-11-21T13:55:18;3.60;;;2.40;;
809;SDS011;387;48.772;9.186;2023-11-21T13:57:44;3.80;;;2.33;;
809;SDS011;387;48.772;9.186;2023-11-21T14:00:14;4.60;;;2.40;;
809;SDS011;387;48.772;9.186;2023-11-21T14:03:04;7.00;;;2.60;;
809;SDS011;387;48.772;9.186;2023-11-21T14:05:34;5.43;;;3.03;;
809;SDS011;387;48.772;9.186;2023-11-21T14:07:59;4.10;;;2.77;;
809;SDS011;387;48.772;9.186;2023-11-21T14:10:32;5.47;;;3.13;;
809;SDS011;387;48.772;9.186;2023-11-21T14:13:05;6.83;;;4.00;;
809;SDS011;387;48.772;9.186;2023-11-21T14:15:31;4.73;;;3.53;;
809;SDS011;387;48.772;9.186;2023-11-21T14:18:02;6.33;;;3.00;;
809;SDS011;387;48.772;9.186;2023-11-21T14:20:32;7.00;;;3.00;;
809;SDS011;387;48.772;9.186;2023-11-21T14:23:04;8.33;;;3.60;;
809;SDS011;387;48.772;9.186;2023-11-21T14:25:33;3.73;;;2.63;;
809;SDS011;387;48.772;9.186;2023-11-21T14:27:59;5.93;;;3.73;;
809;SDS011;387;48.772;9.186;2023-11-21T14:30:26;7.33;;;3.40;;
809;SDS011;387;48.772;9.186;2023-11-21T14:32:52;4.93;;;3.10;;
809;SDS011;387;48.772;9.186;2023-11-21T14:35:18;6.67;;;3.60;;
809;SDS011;387;48.772;9.186;2023-11-21T14:37:44;4.93;;;2.97;;
809;SDS011;387;48.772;9.186;2023-11-21T14:40:11;4.40;;;2.90;;
809;SDS011;387;48.772;9.186;2023-11-21T14:42:40;3.50;;;2.53;;
809;SDS011;387;48.772;9.186;2023-11-21T14:45:07;4.80;;;3.00;;
809;SDS011;387;48.772;9.186;2023-11-21T14:47:33;5.70;;;3.20;;
809;SDS011;387;48.772;9.186;2023-11-21T14:50:02;7.50;;;2.60;;
809;SDS011;387;48.772;9.186;2023-11-21T14:52:48;6.97;;;3.00;;
809;SDS011;387;48.772;9.186;2023-11-21T14:55:26;7.17;;;2.37;;
809;SDS011;387;48.772;9.186;2023-11-21T14:57:57;4.80;;;3.20;;
809;SDS011;387;48.772;9.186;2023-11-21T15:00:27;6.10;;;2.77;;
809;SDS011;387;48.772;9.186;2023-11-21T15:02:59;5.80;;;2.20;;
809;SDS011;387;48.772;9.186;2023-11-21T15:05:25;6.20;;;2.90;;
809;SDS011;387;48.772;9.186;2023-11-21T15:07:52;3.60;;;2.33;;
809;SDS011;387;48.772;9.186;2023-11-21T15:10:29;4.07;;;2.97;;
809;SDS011;387;48.772;9.186;2023-11-21T15:13:10;7.40;;;2.60;;
809;SDS011;387;48.772;9.186;2023-11-21T15:15:36;6.93;;;3.70;;
809;SDS011;387;48.772;9.186;2023-11-21T15:18:02;6.30;;;2.70;;
809;SDS011;387;48.772;9.186;2023-11-21T15:20:28;3.93;;;2.47;;
809;SDS011;387;48.772;9.186;2023-11-21T15:22:55;4.60;;;2.70;;
809;SDS011;387;48.772;9.186;2023-11-21T15:25:21;6.10;;;2.70;;
809;SDS011;387;48.772;9.186;2023-11-21T15:27:47;3.60;;;2.27;;
809;SDS011;387;48.772;9.186;2023-11-21T15:30:15;4.17;;;2.80;;
809;SDS011;387;48.772;9.186;2023-11-21T15:32:45;6.03;;;4.17;;
809;SDS011;387;48.772;9.186;2023-11-21T15:35:10;5.87;;;3.17;;
809;SDS011;387;48.772;9.186;2023-11-21T15:37:39;6.83;;;3.60;;
809;SDS011;387;48.772;9.186;2023-11-21T15:40:05;9.40;;;4.03;;
809;SDS011;387;48.772;9.186;2023-11-21T15:42:33;6.10;;;4.43;;
809;SDS011;387;48.772;9.186;2023-11-21T15:45:00;6.13;;;3.53;;
809;SDS011;387;48.772;9.186;2023-11-21T15:47:26;6.90;;;4.00;;
809;SDS011;387;48.772;9.186;2023-11-21T15:49:52;7.33;;;4.33;;
809;SDS011;387;48.772;9.186;2023-11-21T15:52:17;9.70;;;4.43;;
809;SDS011;387;48.772;9.186;2023-11-21T15:54:44;8.37;;;4.73;;
809;SDS011;387;48.772;9.186;2023-11-21T15:57:11;8.97;;;4.50;;
809;SDS011;387;48.772;9.186;2023-11-21T15:59:39;9.23;;;4.57;;
809;SDS011;387;48.772;9.186;2023-11-21T16:02:07;6.53;;;4.10;;
809;SDS011;387;48.772;9.186;2023-11-21T16:04:32;8.60;;;4.63;;
809;SDS011;387;48.772;9.186;2023-11-21T16:07:00;7.00;;;4.27;;
809;SDS011;387;48.772;9.186;2023-11-21T16:09:26;8.17;;;4.40;;
809;SDS011;387;48.772;9.186;2023-11-21T16:11:56;14.70;;;7.27;;
809;SDS011;387;48.772;9.186;2023-11-21T16:14:26;11.50;;;6.60;;
809;SDS011;387;48.772;9.186;2023-11-21T16:17:10;9.37;;;4.50;;